createdAt,value
2023-05-03T00:00:31.108Z,101033.47
2023-05-03T00:03:01.021Z,101039.28
2023-05-03T00:05:30.167Z,101050.03
2023-05-03T00:08:00.907Z,101047.63
2023-05-03T00:10:32.544Z,101037.13
2023-05-03T00:13:03.286Z,101041.00
2023-05-03T00:15:32.673Z,101045.03
2023-05-03T00:18:04.103Z,101042.50
2023-05-03T00:20:33.324Z,101048.59
2023-05-03T00:23:02.913Z,100963.19
2023-05-03T00:25:32.287Z,101042.25
2023-05-03T00:28:08.992Z,101014.94
2023-05-03T00:30:41.063Z,101050.88
2023-05-03T00:33:10.413Z,101031.53
2023-05-03T00:35:39.875Z,101041.22
2023-05-03T00:38:08.977Z,101018.81
2023-05-03T00:40:38.252Z,101035.50
2023-05-03T00:43:08.954Z,101036.97
2023-05-03T00:45:38.193Z,101039.06
2023-05-03T00:48:09.974Z,101020.53
2023-05-03T00:50:40.394Z,101019.09
2023-05-03T00:53:10.039Z,101037.09
2023-05-03T00:55:39.165Z,101004.69
2023-05-03T00:58:10.921Z,101032.13
2023-05-03T01:00:40.225Z,101012.97
2023-05-03T01:03:09.409Z,101021.03
2023-05-03T01:05:47.114Z,101030.03
2023-05-03T01:08:25.412Z,101017.97
2023-05-03T01:11:04.195Z,101001.91
2023-05-03T01:13:45.329Z,101018.09
2023-05-03T01:16:22.320Z,101012.97
2023-05-03T01:18:53.625Z,100999.59
2023-05-03T01:21:24.290Z,101021.03
2023-05-03T01:24:01.481Z,101004.09
2023-05-03T01:26:33.742Z,101012.97
2023-05-03T01:29:03.246Z,100987.91
2023-05-03T01:31:41.979Z,101005.56
2023-05-03T01:34:24.962Z,101010.31
2023-05-03T01:36:59.252Z,101014.25
2023-05-03T01:39:42.307Z,100993.56
2023-05-03T01:42:15.793Z,101003.75
2023-05-03T01:44:45.877Z,101003.25
2023-05-03T01:47:16.168Z,101007.94
2023-05-03T01:49:45.093Z,101008.91
2023-05-03T01:52:14.219Z,100998.53
2023-05-03T01:54:43.619Z,100984.03
2023-05-03T01:57:16.640Z,100996.47
2023-05-03T01:59:45.840Z,100997.44
2023-05-03T02:02:15.100Z,101001.81
2023-05-03T02:04:44.114Z,100987.09
2023-05-03T02:07:13.498Z,101007.44
2023-05-03T02:09:43.033Z,101001.69
2023-05-03T02:12:12.911Z,100999.16
2023-05-03T02:14:43.733Z,100992.59
2023-05-03T02:17:13.521Z,101005.84
2023-05-03T02:19:44.677Z,101004.88
2023-05-03T02:22:14.041Z,101000.25
2023-05-03T02:24:43.576Z,100994.28
2023-05-03T02:27:12.814Z,101003.06
2023-05-03T02:29:43.894Z,101016.91
2023-05-03T02:32:13.536Z,101003.78
2023-05-03T02:34:42.706Z,101028.13
2023-05-03T02:37:12.671Z,101011.81
2023-05-03T02:39:41.727Z,101025.44
2023-05-03T02:42:14.335Z,101032.84
2023-05-03T02:44:46.555Z,101022.16
2023-05-03T02:47:16.226Z,101021.03
2023-05-03T02:49:48.309Z,101002.03
2023-05-03T02:52:18.311Z,101022.00
2023-05-03T02:54:49.566Z,101022.41
2023-05-03T02:57:19.383Z,101005.22
2023-05-03T02:59:50.237Z,101006.69
2023-05-03T03:02:19.700Z,101016.53
2023-05-03T03:04:49.319Z,100978.41
2023-05-03T03:07:20.147Z,101003.84
2023-05-03T03:09:54.182Z,100987.28
2023-05-03T03:12:24.031Z,101016.66
2023-05-03T03:14:55.971Z,101012.88
2023-05-03T03:17:25.278Z,101006.66
2023-05-03T03:19:54.874Z,101002.16
2023-05-03T03:22:23.947Z,101011.31
2023-05-03T03:24:53.024Z,101022.72
2023-05-03T03:27:24.161Z,101017.16
2023-05-03T03:29:53.208Z,101020.84
2023-05-03T03:32:23.528Z,101018.38
2023-05-03T03:34:52.946Z,101023.88
2023-05-03T03:37:25.733Z,101014.13
2023-05-03T03:39:55.061Z,101025.19
2023-05-03T03:42:26.068Z,101014.56
2023-05-03T03:44:55.646Z,101021.38
2023-05-03T03:47:26.654Z,101022.53
2023-05-03T03:49:56.083Z,100984.47
2023-05-03T03:52:25.532Z,101027.66
2023-05-03T03:54:54.920Z,101024.44
2023-05-03T03:57:30.682Z,101027.13
2023-05-03T04:00:01.304Z,101025.44
2023-05-03T04:02:43.555Z,101032.44
2023-05-03T04:05:18.874Z,100989.00
2023-05-03T04:07:49.088Z,101029.88
2023-05-03T04:10:19.876Z,101031.97
2023-05-03T04:12:49.213Z,101023.16
2023-05-03T04:15:21.682Z,101030.28
2023-05-03T04:18:02.037Z,100968.81
2023-05-03T04:20:45.975Z,101021.03
2023-05-03T04:23:35.154Z,101033.13
2023-05-03T04:26:06.574Z,101029.13
2023-05-03T04:28:39.046Z,101040.16
2023-05-03T04:31:10.054Z,101041.28
2023-05-03T04:33:41.410Z,101031.06
2023-05-03T04:36:17.133Z,101026.22
2023-05-03T04:38:49.374Z,101049.59
2023-05-03T04:41:20.029Z,101043.13
2023-05-03T04:43:50.364Z,101044.22
2023-05-03T04:46:19.826Z,101043.00
2023-05-03T04:48:51.437Z,101035.34
2023-05-03T04:51:20.724Z,101040.25
2023-05-03T04:53:52.231Z,101058.22
2023-05-03T04:56:26.456Z,101056.88
2023-05-03T04:59:03.115Z,101058.19
2023-05-03T05:01:35.588Z,101057.91
2023-05-03T05:04:10.857Z,101024.47
2023-05-03T05:06:48.697Z,101053.41
2023-05-03T05:09:23.479Z,101047.53
2023-05-03T05:11:57.022Z,101008.38
2023-05-03T05:14:29.346Z,101061.44
2023-05-03T05:17:00.331Z,101045.50
2023-05-03T05:19:31.294Z,101060.88
2023-05-03T05:22:01.410Z,101060.28
2023-05-03T05:24:41.802Z,101040.63
2023-05-03T05:27:13.684Z,101049.56
2023-05-03T05:29:44.172Z,101040.63
2023-05-03T05:32:14.104Z,101049.31
2023-05-03T05:34:51.498Z,101043.50
2023-05-03T05:37:21.266Z,101051.44
2023-05-03T05:39:51.135Z,101054.63
2023-05-03T05:42:23.572Z,101046.28
2023-05-03T05:44:53.218Z,101043.91
2023-05-03T05:47:23.611Z,101027.56
2023-05-03T05:49:56.993Z,101048.09
2023-05-03T05:52:26.537Z,101037.34
2023-05-03T05:54:56.838Z,101025.47
2023-05-03T05:57:26.236Z,101032.88
2023-05-03T05:59:56.565Z,101029.75
2023-05-03T06:02:27.113Z,101015.19
2023-05-03T06:05:00.871Z,101028.28
2023-05-03T06:07:30.550Z,101021.69
2023-05-03T06:09:59.935Z,101015.06
2023-05-03T06:12:30.266Z,100979.03
2023-05-03T06:15:02.757Z,101009.78
2023-05-03T06:17:37.233Z,101002.16
2023-05-03T06:20:14.628Z,100989.97
2023-05-03T06:22:45.288Z,100989.59
2023-05-03T06:25:17.537Z,101006.28
2023-05-03T06:27:50.198Z,101002.97
2023-05-03T06:30:23.877Z,100991.94
2023-05-03T06:32:53.655Z,100995.94
2023-05-03T06:35:27.761Z,101016.31
2023-05-03T06:37:59.401Z,101001.16
2023-05-03T06:40:28.870Z,100997.69
2023-05-03T06:42:59.429Z,101000.59
2023-05-03T06:45:43.817Z,100999.31
2023-05-03T06:48:13.332Z,100991.34
2023-05-03T06:50:45.677Z,101012.28
2023-05-03T06:53:14.877Z,101007.63
2023-05-03T06:55:46.213Z,100999.97
2023-05-03T06:58:16.958Z,101004.38
2023-05-03T07:00:47.104Z,100999.13
2023-05-03T07:03:16.694Z,101000.09
2023-05-03T07:05:52.313Z,100981.59
2023-05-03T07:08:21.818Z,101009.81
2023-05-03T07:10:51.305Z,101010.22
2023-05-03T07:13:21.558Z,101005.91
2023-05-03T07:15:51.016Z,101002.19
2023-05-03T07:18:20.701Z,100999.31
2023-05-03T07:20:53.316Z,100996.34
2023-05-03T07:23:22.593Z,100989.75
2023-05-03T07:25:54.069Z,100984.06
2023-05-03T07:28:26.232Z,100992.69
2023-05-03T07:30:57.813Z,100955.94
2023-05-03T07:33:27.540Z,100977.75
2023-05-03T07:35:58.281Z,101010.31
2023-05-03T07:38:27.313Z,100983.09
2023-05-03T07:40:56.848Z,100945.28
2023-05-03T07:43:29.389Z,100955.34
2023-05-03T07:45:59.871Z,100954.06
2023-05-03T07:48:32.355Z,100955.47
2023-05-03T07:51:08.719Z,100962.00
2023-05-03T07:53:44.422Z,100983.72
2023-05-03T07:56:14.182Z,100970.22
2023-05-03T07:58:45.061Z,100968.69
2023-05-03T08:01:16.224Z,100951.13
2023-05-03T08:03:46.496Z,100970.88
2023-05-03T08:06:18.984Z,100967.44
2023-05-03T08:08:48.461Z,100966.09
2023-05-03T08:11:19.243Z,100955.97
2023-05-03T08:13:49.101Z,100967.66
2023-05-03T08:16:18.407Z,100966.50
2023-05-03T08:18:47.921Z,100956.97
2023-05-03T08:21:19.457Z,100969.88
2023-05-03T08:23:48.903Z,100971.91
2023-05-03T08:26:18.119Z,100974.44
2023-05-03T08:28:49.943Z,100947.53
2023-05-03T08:31:19.339Z,100975.63
2023-05-03T08:33:48.604Z,100964.44
2023-05-03T08:36:19.032Z,100969.00
2023-05-03T08:38:48.566Z,100960.66
2023-05-03T08:41:30.476Z,100952.72
2023-05-03T08:44:01.000Z,100956.31
2023-05-03T08:46:30.814Z,100946.50
2023-05-03T08:49:01.310Z,100974.59
2023-05-03T08:51:32.660Z,100905.38
2023-05-03T08:54:02.268Z,100950.06
2023-05-03T08:56:47.857Z,100953.06
2023-05-03T08:59:20.220Z,100968.78
2023-05-03T09:01:49.674Z,100962.16
2023-05-03T09:04:19.048Z,100964.66
2023-05-03T09:06:50.086Z,100957.00
2023-05-03T09:09:32.821Z,100965.19
2023-05-03T09:12:52.009Z,100945.38
2023-05-03T09:15:23.329Z,100830.03
2023-05-03T09:18:09.085Z,100945.47
2023-05-03T09:20:40.270Z,100974.06
2023-05-03T09:23:18.601Z,100964.22
2023-05-03T09:25:51.489Z,100943.44
2023-05-03T09:28:22.291Z,100983.38
2023-05-03T09:30:52.063Z,100936.66
2023-05-03T09:33:30.648Z,100965.19
2023-05-03T09:36:00.766Z,100936.38
2023-05-03T09:38:34.945Z,100976.94
2023-05-03T09:41:15.133Z,100962.38
2023-05-03T09:44:07.885Z,100982.72
2023-05-03T09:46:38.748Z,100976.00
2023-05-03T09:49:08.481Z,100957.22
2023-05-03T09:51:41.904Z,100955.38
2023-05-03T09:54:13.341Z,100984.81
2023-05-03T09:56:45.124Z,100975.41
2023-05-03T09:59:17.799Z,100969.03
2023-05-03T10:01:47.971Z,100973.00
2023-05-03T10:04:22.434Z,100970.13
2023-05-03T10:06:55.562Z,100977.16
2023-05-03T10:09:33.856Z,100961.00
2023-05-03T10:12:09.852Z,100939.91
2023-05-03T10:14:39.427Z,100957.81
2023-05-03T10:17:15.229Z,100969.38
2023-05-03T10:19:52.746Z,100956.47
2023-05-03T10:22:25.451Z,100982.28
2023-05-03T10:25:16.064Z,100976.53
2023-05-03T10:27:54.348Z,100910.31
2023-05-03T10:30:32.840Z,100977.81
2023-05-03T10:33:32.723Z,100956.38
2023-05-03T10:36:07.334Z,100951.63
2023-05-03T10:38:38.684Z,100963.19
2023-05-03T10:41:10.319Z,100980.84
2023-05-03T10:43:47.294Z,100948.19
2023-05-03T10:46:43.697Z,100964.09
2023-05-03T10:49:24.178Z,100966.44
2023-05-03T10:51:53.921Z,100973.81
2023-05-03T10:54:24.719Z,100966.56
2023-05-03T10:56:57.717Z,100888.13
2023-05-03T10:59:27.330Z,100965.91
2023-05-03T11:01:57.320Z,100951.25
2023-05-03T11:04:44.777Z,100968.91
2023-05-03T11:07:22.156Z,100941.00
2023-05-03T11:09:52.069Z,100951.91
2023-05-03T11:12:22.701Z,100932.78
2023-05-03T11:14:52.100Z,100946.97
2023-05-03T11:17:22.638Z,100928.88
2023-05-03T11:19:51.939Z,100934.78
2023-05-03T11:22:21.356Z,100948.03
2023-05-03T11:24:52.903Z,100955.97
2023-05-03T11:27:30.704Z,100965.44
2023-05-03T11:30:00.707Z,100951.59
2023-05-03T11:32:45.037Z,100944.25
2023-05-03T11:35:15.567Z,100949.44
2023-05-03T11:37:45.249Z,100935.56
2023-05-03T11:40:20.327Z,100936.47
2023-05-03T11:42:54.918Z,100949.66
2023-05-03T11:45:25.905Z,100938.03
2023-05-03T11:47:59.489Z,100937.09
2023-05-03T11:50:44.564Z,100939.03
2023-05-03T11:53:14.323Z,100941.59
2023-05-03T11:55:46.426Z,100949.03
2023-05-03T11:58:19.064Z,100949.97
2023-05-03T12:00:50.159Z,100843.72
2023-05-03T12:03:20.881Z,100939.06
2023-05-03T12:05:52.519Z,100913.00
2023-05-03T12:08:25.431Z,100926.31
2023-05-03T12:10:58.057Z,100909.31
2023-05-03T12:13:37.717Z,100914.09
2023-05-03T12:16:15.687Z,100923.16
2023-05-03T12:18:51.713Z,100921.28
2023-05-03T12:23:56.349Z,100912.78
2023-05-03T12:26:27.681Z,100920.88
2023-05-03T12:29:02.211Z,100887.50
2023-05-03T12:31:35.268Z,100904.34
2023-05-03T12:34:30.999Z,100909.75
2023-05-03T12:36:56.422Z,100900.16
2023-05-03T12:39:27.568Z,100898.22
2023-05-03T12:42:07.067Z,100893.88
2023-05-03T12:44:47.927Z,100864.16
2023-05-03T12:47:26.954Z,100889.06
2023-05-03T12:50:00.111Z,100878.25
2023-05-03T12:55:17.762Z,100884.34
2023-05-03T12:58:18.256Z,100749.00
2023-05-03T13:03:32.807Z,100885.00
2023-05-03T13:06:12.740Z,100872.94
2023-05-03T13:08:50.313Z,100881.34
2023-05-03T13:11:20.458Z,100873.41
2023-05-03T13:13:49.571Z,100855.84
2023-05-03T13:16:20.787Z,100874.31
2023-05-03T13:18:55.300Z,100871.06
2023-05-03T13:21:28.297Z,100857.72
2023-05-03T13:23:58.696Z,100875.13
2023-05-03T13:26:27.888Z,100871.28
2023-05-03T13:28:57.548Z,100860.16
2023-05-03T13:31:30.533Z,100875.19
2023-05-03T13:34:01.262Z,100862.09
2023-05-03T13:36:33.393Z,100859.75
2023-05-03T13:39:03.702Z,100856.00
2023-05-03T13:41:34.256Z,100825.38
2023-05-03T13:44:04.103Z,100863.44
2023-05-03T13:46:38.505Z,100864.56
2023-05-03T13:49:08.884Z,100865.09
2023-05-03T13:51:50.122Z,100860.16
2023-05-03T13:54:19.312Z,100872.19
2023-05-03T13:56:48.711Z,100838.81
2023-05-03T13:59:21.278Z,100859.19
2023-05-03T14:01:52.851Z,100869.66
2023-05-03T14:04:24.710Z,100860.03
2023-05-03T14:06:55.615Z,100845.63
2023-05-03T14:09:26.642Z,100865.50
2023-05-03T14:11:57.643Z,100861.38
2023-05-03T14:14:28.589Z,100879.66
2023-05-03T14:16:59.096Z,100873.69
2023-05-03T14:19:29.436Z,100851.06
2023-05-03T14:21:59.683Z,100866.00
2023-05-03T14:24:28.886Z,100856.47
2023-05-03T14:27:00.046Z,100864.16
2023-05-03T14:29:29.210Z,100875.59
2023-05-03T14:32:01.214Z,100862.56
2023-05-03T14:34:31.173Z,100873.53
2023-05-03T14:37:00.468Z,100865.50
2023-05-03T14:39:30.837Z,100872.25
2023-05-03T14:42:03.388Z,100850.84
2023-05-03T14:44:32.517Z,100869.72
2023-05-03T14:47:04.070Z,100856.56
2023-05-03T14:49:38.421Z,100874.78
2023-05-03T14:52:07.883Z,100867.50
2023-05-03T14:54:37.004Z,100865.78
2023-05-03T14:57:07.686Z,100869.09
2023-05-03T14:59:37.076Z,100871.06
2023-05-03T15:02:08.593Z,100867.56
2023-05-03T15:04:39.255Z,100873.38
2023-05-03T15:07:09.635Z,100870.31
2023-05-03T15:09:39.335Z,100874.91
2023-05-03T15:12:08.841Z,100869.03
2023-05-03T15:14:37.957Z,100866.09
2023-05-03T15:17:08.588Z,100872.81
2023-05-03T15:19:38.449Z,100877.91
2023-05-03T15:22:08.539Z,100876.31
2023-05-03T15:24:37.698Z,100853.91
2023-05-03T15:27:06.978Z,100869.69
2023-05-03T15:29:36.492Z,100870.72
2023-05-03T15:32:06.596Z,100869.16
2023-05-03T15:34:37.479Z,100874.19
2023-05-03T15:37:07.271Z,100865.50
2023-05-03T15:39:40.163Z,100873.78
2023-05-03T15:42:09.900Z,100875.91
2023-05-03T15:44:39.493Z,100869.25
2023-05-03T15:47:09.386Z,100871.91
2023-05-03T15:49:41.100Z,100871.09
2023-05-03T15:52:12.954Z,100877.72
2023-05-03T15:54:42.809Z,100874.44
2023-05-03T15:57:12.125Z,100875.34
2023-05-03T15:59:41.788Z,100819.88
2023-05-03T16:02:11.515Z,100879.94
2023-05-03T16:04:45.629Z,100879.69
2023-05-03T16:07:15.663Z,100885.38
2023-05-03T16:09:46.545Z,100852.63
2023-05-03T16:12:17.010Z,100873.19
2023-05-03T16:14:46.808Z,100870.00
2023-05-03T16:17:16.725Z,100870.19
2023-05-03T16:19:47.692Z,100876.97
2023-05-03T16:22:17.188Z,100878.31
2023-05-03T16:24:46.957Z,100889.16
2023-05-03T16:27:16.417Z,100887.81
2023-05-03T16:29:46.655Z,100895.69
2023-05-03T16:32:16.877Z,100901.13
2023-05-03T16:34:49.100Z,100903.84
2023-05-03T16:37:20.015Z,100889.66
2023-05-03T16:39:49.745Z,100904.53
2023-05-03T16:42:19.388Z,100911.09
2023-05-03T16:44:48.900Z,100914.56
2023-05-03T16:47:18.334Z,100911.06
2023-05-03T16:49:49.244Z,100912.50
2023-05-03T16:52:18.409Z,100928.75
2023-05-03T16:54:48.092Z,100918.81
2023-05-03T16:57:17.827Z,100926.28
2023-05-03T16:59:47.345Z,100936.91
2023-05-03T17:02:16.979Z,100932.91
2023-05-03T17:04:46.835Z,100941.50
2023-05-03T17:07:18.161Z,100934.59
2023-05-03T17:09:47.517Z,100937.66
2023-05-03T17:12:19.765Z,100936.66
2023-05-03T17:14:49.191Z,100937.50
2023-05-03T17:17:18.892Z,100946.81
2023-05-03T17:19:48.663Z,100925.84
2023-05-03T17:22:22.549Z,100950.22
2023-05-03T17:24:55.444Z,100961.34
2023-05-03T17:27:25.488Z,100973.22
2023-05-03T17:29:57.412Z,100970.75
2023-05-03T17:32:27.177Z,100974.19
2023-05-03T17:34:56.975Z,100967.75
2023-05-03T17:37:28.685Z,100981.31
2023-05-03T17:39:58.253Z,100975.78
2023-05-03T17:42:27.838Z,100964.22
2023-05-03T17:44:58.093Z,100982.50
2023-05-03T17:47:27.692Z,101000.31
2023-05-03T17:49:56.989Z,100998.59
2023-05-03T17:52:27.903Z,100999.41
2023-05-03T17:54:58.610Z,100989.94
2023-05-03T17:57:29.256Z,101002.72
2023-05-03T17:59:59.853Z,100996.19
2023-05-03T18:02:31.227Z,101009.25
2023-05-03T18:05:01.116Z,100990.56
2023-05-03T18:07:32.372Z,101015.06
2023-05-03T18:10:02.043Z,100991.91
2023-05-03T18:12:32.447Z,101026.38
2023-05-03T18:15:02.631Z,101012.06
2023-05-03T18:17:32.530Z,101020.81
2023-05-03T18:20:02.301Z,101027.34
2023-05-03T18:22:33.612Z,101029.56
2023-05-03T18:25:06.408Z,101041.16
2023-05-03T18:27:37.965Z,101036.25
2023-05-03T18:30:10.635Z,101025.88
2023-05-03T18:32:40.235Z,101025.19
2023-05-03T18:35:10.734Z,101026.31
2023-05-03T18:37:41.540Z,101049.44
2023-05-03T18:40:11.491Z,101059.88
2023-05-03T18:42:41.157Z,101042.56
2023-05-03T18:45:12.118Z,101059.63
2023-05-03T18:47:43.933Z,101056.22
2023-05-03T18:50:13.910Z,101067.53
2023-05-03T18:52:45.210Z,101069.78
2023-05-03T18:55:17.748Z,101048.19
2023-05-03T18:57:47.701Z,101064.88
2023-05-03T19:00:18.694Z,101072.56
2023-05-03T19:02:48.561Z,101071.09
2023-05-03T19:05:18.840Z,101082.53
2023-05-03T19:07:50.105Z,101092.28
2023-05-03T19:10:21.125Z,101070.06
2023-05-03T19:12:53.871Z,101081.75
2023-05-03T19:15:23.700Z,101084.34
2023-05-03T19:17:53.384Z,101080.41
2023-05-03T19:20:23.349Z,101081.06
2023-05-03T19:22:56.148Z,101089.31
2023-05-03T19:25:26.420Z,101077.91
2023-05-03T19:27:55.548Z,101094.03
2023-05-03T19:30:25.363Z,101090.69
2023-05-03T19:32:55.056Z,101101.38
2023-05-03T19:35:24.567Z,101092.88
2023-05-03T19:37:55.333Z,101084.78
2023-05-03T19:40:26.122Z,101089.75
2023-05-03T19:42:56.940Z,101103.72
2023-05-03T19:45:26.805Z,101098.78
2023-05-03T19:47:56.682Z,101104.91
2023-05-03T19:50:27.797Z,101119.56
2023-05-03T19:52:58.335Z,101120.66
2023-05-03T19:55:30.303Z,101114.59
2023-05-03T19:57:59.997Z,101122.22
2023-05-03T20:00:33.122Z,101126.22
2023-05-03T20:03:04.152Z,101117.47
2023-05-03T20:05:33.669Z,101117.69
2023-05-03T20:08:04.547Z,101125.69
2023-05-03T20:10:36.403Z,101120.09
2023-05-03T20:13:05.901Z,101114.28
2023-05-03T20:15:37.145Z,101132.31
2023-05-03T20:18:06.461Z,101111.13
2023-05-03T20:20:36.682Z,101126.00
2023-05-03T20:23:08.082Z,101115.16
2023-05-03T20:25:37.977Z,101124.44
2023-05-03T20:28:07.066Z,101108.47
2023-05-03T20:30:36.447Z,101118.16
2023-05-03T20:33:16.792Z,101118.81
2023-05-03T20:35:46.308Z,101133.31
2023-05-03T20:38:18.259Z,101136.56
2023-05-03T20:40:47.888Z,101129.16
2023-05-03T20:43:19.361Z,101140.13
2023-05-03T20:45:48.542Z,101148.75
2023-05-03T20:48:17.681Z,101141.41
2023-05-03T20:50:47.761Z,101139.56
2023-05-03T20:53:18.908Z,101152.38
2023-05-03T20:55:48.010Z,101146.28
2023-05-03T20:58:17.194Z,101136.25
2023-05-03T21:00:46.901Z,101144.53
2023-05-03T21:03:16.972Z,101144.56
2023-05-03T21:05:46.448Z,101142.59
2023-05-03T21:08:17.950Z,101144.47
2023-05-03T21:10:47.333Z,101151.69
2023-05-03T21:13:16.607Z,101152.16
2023-05-03T21:15:45.702Z,101154.47
2023-05-03T21:18:15.256Z,101148.06
2023-05-03T21:20:45.402Z,101152.94
2023-05-03T21:23:19.436Z,101154.16
2023-05-03T21:25:50.052Z,101140.72
2023-05-03T21:28:19.304Z,101142.47
2023-05-03T21:30:49.259Z,101157.56
2023-05-03T21:33:21.197Z,101164.91
2023-05-03T21:35:50.917Z,101160.75
2023-05-03T21:38:20.148Z,101173.13
2023-05-03T21:40:50.623Z,101159.28
2023-05-03T21:43:20.150Z,101161.50
2023-05-03T21:45:50.202Z,101160.72
2023-05-03T21:48:19.119Z,101160.25
2023-05-03T21:50:48.394Z,101164.66
2023-05-03T21:53:17.785Z,101155.63
2023-05-03T21:55:47.768Z,101160.47
2023-05-03T21:58:19.128Z,101159.28
2023-05-03T22:00:48.110Z,101161.34
2023-05-03T22:03:17.638Z,101154.13
2023-05-03T22:05:48.782Z,101146.59
2023-05-03T22:08:18.755Z,101153.03
2023-05-03T22:10:47.800Z,101147.66
2023-05-03T22:13:18.478Z,101154.63
2023-05-03T22:15:47.630Z,101136.56
2023-05-03T22:18:16.822Z,101129.25
2023-05-03T22:20:45.992Z,101157.25
2023-05-03T22:23:15.749Z,101145.34
2023-05-03T22:25:46.277Z,101127.28
2023-05-03T22:28:15.431Z,101146.50
2023-05-03T22:30:45.977Z,101143.72
2023-05-03T22:33:15.402Z,101133.06
2023-05-03T22:35:44.380Z,101138.13
2023-05-03T22:38:13.489Z,101140.13
2023-05-03T22:40:42.534Z,101156.91
2023-05-03T22:43:11.588Z,101153.75
2023-05-03T22:45:40.711Z,101147.91
2023-05-03T22:48:11.164Z,101144.63
2023-05-03T22:50:40.614Z,101156.44
2023-05-03T22:53:09.619Z,101148.28
2023-05-03T22:55:38.701Z,101144.72
2023-05-03T22:58:08.506Z,101162.84
2023-05-03T23:00:37.607Z,101142.03
2023-05-03T23:03:08.951Z,101122.47
2023-05-03T23:05:39.459Z,101144.56
2023-05-03T23:08:08.480Z,101149.78
2023-05-03T23:10:37.566Z,101140.75
2023-05-03T23:13:06.688Z,101083.28
2023-05-03T23:15:36.168Z,101076.91
2023-05-03T23:18:05.681Z,101108.53
2023-05-03T23:20:35.089Z,101131.41
2023-05-03T23:23:05.412Z,101063.19
2023-05-03T23:25:34.916Z,101118.97
2023-05-03T23:28:04.054Z,101115.03
2023-05-03T23:30:33.469Z,101070.38
2023-05-03T23:33:02.893Z,101111.69
2023-05-03T23:35:32.860Z,101131.00
2023-05-03T23:38:01.914Z,101104.91
2023-05-03T23:40:32.377Z,101105.78
2023-05-03T23:43:01.588Z,101116.56
2023-05-03T23:45:30.676Z,101098.94
2023-05-03T23:47:59.793Z,101102.72
2023-05-03T23:50:29.031Z,101125.91
2023-05-03T23:52:58.707Z,101121.66
2023-05-03T23:55:27.747Z,101115.88
2023-05-03T23:57:58.189Z,101106.63
